sensor_id;sensor_type;location;lat;lon;timestamp;temperature;humidity
41427;DHT22;27171;51.812;19.514;2022-12-29T00:01:49;5.00;99.90
41427;DHT22;27171;51.812;19.514;2022-12-29T00:04:50;5.10;99.90
41427;DHT22;27171;51.812;19.514;2022-12-29T00:07:51;5.10;99.90
41427;DHT22;27171;51.812;19.514;2022-12-29T00:10:54;5.00;99.90
41427;DHT22;27171;51.812;19.514;2022-12-29T00:13:55;5.00;99.90
41427;DHT22;27171;51.812;19.514;2022-12-29T00:16:56;5.00;99.90
41427;DHT22;27171;51.812;19.514;2022-12-29T00:19:57;5.00;99.90
41427;DHT22;27171;51.812;19.514;2022-12-29T00:22:58;5.00;99.90
41427;DHT22;27171;51.812;19.514;2022-12-29T00:26:03;5.00;99.90
41427;DHT22;27171;51.812;19.514;2022-12-29T00:29:04;5.00;99.90
41427;DHT22;27171;51.812;19.514;2022-12-29T00:32:07;5.00;99.90
41427;DHT22;27171;51.812;19.514;2022-12-29T00:35:14;5.00;99.90
41427;DHT22;27171;51.812;19.514;2022-12-29T00:38:15;5.00;99.90
41427;DHT22;27171;51.812;19.514;2022-12-29T00:41:17;5.00;99.90
41427;DHT22;27171;51.812;19.514;2022-12-29T00:44:18;5.00;99.90
41427;DHT22;27171;51.812;19.514;2022-12-29T00:47:19;5.00;99.90
41427;DHT22;27171;51.812;19.514;2022-12-29T00:50:20;5.00;99.90
41427;DHT22;27171;51.812;19.514;2022-12-29T00:53:21;5.00;99.90
41427;DHT22;27171;51.812;19.514;2022-12-29T00:56:22;4.90;99.90
41427;DHT22;27171;51.812;19.514;2022-12-29T00:59:23;4.90;99.90
41427;DHT22;27171;51.812;19.514;2022-12-29T01:02:24;5.00;99.90
41427;DHT22;27171;51.812;19.514;2022-12-29T01:05:25;4.90;99.90
41427;DHT22;27171;51.812;19.514;2022-12-29T01:08:27;4.90;99.90
41427;DHT22;27171;51.812;19.514;2022-12-29T01:11:29;4.90;99.90
41427;DHT22;27171;51.812;19.514;2022-12-29T01:14:30;4.90;99.90
41427;DHT22;27171;51.812;19.514;2022-12-29T01:17:31;4.90;99.90
41427;DHT22;27171;51.812;19.514;2022-12-29T01:20:32;4.90;99.90
41427;DHT22;27171;51.812;19.514;2022-12-29T01:23:34;4.90;99.90
41427;DHT22;27171;51.812;19.514;2022-12-29T01:26:35;4.90;99.90
41427;DHT22;27171;51.812;19.514;2022-12-29T01:29:36;4.90;99.90
41427;DHT22;27171;51.812;19.514;2022-12-29T01:32:39;4.90;99.90
41427;DHT22;27171;51.812;19.514;2022-12-29T01:35:40;4.90;99.90
41427;DHT22;27171;51.812;19.514;2022-12-29T01:38:42;4.90;99.90
41427;DHT22;27171;51.812;19.514;2022-12-29T01:41:43;4.90;99.90
41427;DHT22;27171;51.812;19.514;2022-12-29T01:44:48;4.90;99.90
41427;DHT22;27171;51.812;19.514;2022-12-29T01:47:53;4.90;99.90
41427;DHT22;27171;51.812;19.514;2022-12-29T01:50:55;4.90;99.90
41427;DHT22;27171;51.812;19.514;2022-12-29T01:53:58;4.90;99.90
41427;DHT22;27171;51.812;19.514;2022-12-29T01:57:02;5.00;99.90
41427;DHT22;27171;51.812;19.514;2022-12-29T02:00:10;5.00;99.90
41427;DHT22;27171;51.812;19.514;2022-12-29T02:03:17;5.00;99.90
41427;DHT22;27171;51.812;19.514;2022-12-29T02:06:27;5.00;99.90
41427;DHT22;27171;51.812;19.514;2022-12-29T02:09:29;5.00;99.90
41427;DHT22;27171;51.812;19.514;2022-12-29T02:12:30;5.10;99.90
41427;DHT22;27171;51.812;19.514;2022-12-29T02:32:05;5.10;99.90
41427;DHT22;27171;51.812;19.514;2022-12-29T02:35:29;5.10;99.90
41427;DHT22;27171;51.812;19.514;2022-12-29T02:45:16;5.10;99.90
41427;DHT22;27171;51.812;19.514;2022-12-29T02:48:27;5.10;99.90
41427;DHT22;27171;51.812;19.514;2022-12-29T02:51:40;5.10;99.90
41427;DHT22;27171;51.812;19.514;2022-12-29T02:54:43;5.10;99.90
41427;DHT22;27171;51.812;19.514;2022-12-29T02:57:45;5.10;99.90
41427;DHT22;27171;51.812;19.514;2022-12-29T03:08:31;5.10;99.90
41427;DHT22;27171;51.812;19.514;2022-12-29T03:11:13;5.10;99.90
41427;DHT22;27171;51.812;19.514;2022-12-29T03:17:40;5.10;99.90
41427;DHT22;27171;51.812;19.514;2022-12-29T03:20:52;5.10;99.90
41427;DHT22;27171;51.812;19.514;2022-12-29T03:23:55;5.10;99.90
41427;DHT22;27171;51.812;19.514;2022-12-29T03:26:59;5.10;99.90
41427;DHT22;27171;51.812;19.514;2022-12-29T03:30:05;5.10;99.90
41427;DHT22;27171;51.812;19.514;2022-12-29T03:33:10;5.10;99.90
41427;DHT22;27171;51.812;19.514;2022-12-29T03:36:20;5.10;99.90
41427;DHT22;27171;51.812;19.514;2022-12-29T03:39:27;5.10;99.90
41427;DHT22;27171;51.812;19.514;2022-12-29T03:42:31;5.00;99.90
41427;DHT22;27171;51.812;19.514;2022-12-29T03:45:33;5.10;99.90
41427;DHT22;27171;51.812;19.514;2022-12-29T03:48:34;5.10;99.90
41427;DHT22;27171;51.812;19.514;2022-12-29T03:51:35;5.10;99.90
41427;DHT22;27171;51.812;19.514;2022-12-29T03:54:39;5.10;99.90
41427;DHT22;27171;51.812;19.514;2022-12-29T03:57:41;5.10;99.90
41427;DHT22;27171;51.812;19.514;2022-12-29T04:00:46;5.10;99.90
41427;DHT22;27171;51.812;19.514;2022-12-29T04:03:48;5.10;99.90
41427;DHT22;27171;51.812;19.514;2022-12-29T04:06:50;5.10;99.90
41427;DHT22;27171;51.812;19.514;2022-12-29T04:09:51;5.10;99.90
41427;DHT22;27171;51.812;19.514;2022-12-29T04:12:56;5.10;99.90
41427;DHT22;27171;51.812;19.514;2022-12-29T04:15:58;5.10;99.90
41427;DHT22;27171;51.812;19.514;2022-12-29T04:18:59;5.10;99.90
41427;DHT22;27171;51.812;19.514;2022-12-29T04:22:00;5.10;99.90
41427;DHT22;27171;51.812;19.514;2022-12-29T04:25:02;5.10;99.90
41427;DHT22;27171;51.812;19.514;2022-12-29T04:28:03;5.00;99.90
41427;DHT22;27171;51.812;19.514;2022-12-29T04:31:18;5.00;99.90
41427;DHT22;27171;51.812;19.514;2022-12-29T04:34:21;5.10;99.90
41427;DHT22;27171;51.812;19.514;2022-12-29T04:37:23;5.10;99.90
41427;DHT22;27171;51.812;19.514;2022-12-29T04:40:23;5.10;99.90
41427;DHT22;27171;51.812;19.514;2022-12-29T04:43:25;5.10;99.90
41427;DHT22;27171;51.812;19.514;2022-12-29T04:46:39;5.10;99.90
41427;DHT22;27171;51.812;19.514;2022-12-29T04:49:44;5.10;99.90
41427;DHT22;27171;51.812;19.514;2022-12-29T04:52:59;5.10;99.90
41427;DHT22;27171;51.812;19.514;2022-12-29T04:56:01;5.10;99.90
41427;DHT22;27171;51.812;19.514;2022-12-29T04:59:02;5.10;99.90
41427;DHT22;27171;51.812;19.514;2022-12-29T05:02:03;5.10;99.90
41427;DHT22;27171;51.812;19.514;2022-12-29T05:05:07;5.10;99.90
41427;DHT22;27171;51.812;19.514;2022-12-29T05:08:11;5.10;99.90
41427;DHT22;27171;51.812;19.514;2022-12-29T05:11:12;5.10;99.90
41427;DHT22;27171;51.812;19.514;2022-12-29T05:14:13;5.20;99.90
41427;DHT22;27171;51.812;19.514;2022-12-29T05:17:15;5.20;99.90
41427;DHT22;27171;51.812;19.514;2022-12-29T05:20:16;5.20;99.90
41427;DHT22;27171;51.812;19.514;2022-12-29T05:23:17;5.20;99.90
41427;DHT22;27171;51.812;19.514;2022-12-29T05:26:26;5.20;99.90
41427;DHT22;27171;51.812;19.514;2022-12-29T05:29:50;5.20;99.90
41427;DHT22;27171;51.812;19.514;2022-12-29T05:32:51;5.20;99.90
41427;DHT22;27171;51.812;19.514;2022-12-29T05:35:53;5.20;99.90
41427;DHT22;27171;51.812;19.514;2022-12-29T05:38:55;5.30;99.90
41427;DHT22;27171;51.812;19.514;2022-12-29T05:41:57;5.30;99.90
41427;DHT22;27171;51.812;19.514;2022-12-29T05:45:12;5.30;99.90
41427;DHT22;27171;51.812;19.514;2022-12-29T05:48:27;5.40;99.90
41427;DHT22;27171;51.812;19.514;2022-12-29T05:51:42;5.40;99.90
41427;DHT22;27171;51.812;19.514;2022-12-29T05:54:43;5.40;99.90
41427;DHT22;27171;51.812;19.514;2022-12-29T05:57:48;5.40;99.90
41427;DHT22;27171;51.812;19.514;2022-12-29T06:00:50;5.40;99.90
41427;DHT22;27171;51.812;19.514;2022-12-29T06:03:52;5.50;99.90
41427;DHT22;27171;51.812;19.514;2022-12-29T06:06:54;5.50;99.90
41427;DHT22;27171;51.812;19.514;2022-12-29T06:10:05;5.50;99.90
41427;DHT22;27171;51.812;19.514;2022-12-29T06:13:13;5.50;99.90
41427;DHT22;27171;51.812;19.514;2022-12-29T06:16:17;5.50;99.90
41427;DHT22;27171;51.812;19.514;2022-12-29T06:19:19;5.50;99.90
41427;DHT22;27171;51.812;19.514;2022-12-29T06:22:20;5.50;99.90
41427;DHT22;27171;51.812;19.514;2022-12-29T06:25:21;5.60;99.90
41427;DHT22;27171;51.812;19.514;2022-12-29T06:28:23;5.60;99.90
41427;DHT22;27171;51.812;19.514;2022-12-29T06:31:24;5.60;99.90
41427;DHT22;27171;51.812;19.514;2022-12-29T06:34:25;5.60;99.90
41427;DHT22;27171;51.812;19.514;2022-12-29T06:37:27;5.60;99.90
41427;DHT22;27171;51.812;19.514;2022-12-29T06:40:28;5.60;99.90
41427;DHT22;27171;51.812;19.514;2022-12-29T06:43:52;5.60;99.90
41427;DHT22;27171;51.812;19.514;2022-12-29T06:47:11;5.60;99.90
41427;DHT22;27171;51.812;19.514;2022-12-29T06:50:12;5.60;99.90
41427;DHT22;27171;51.812;19.514;2022-12-29T06:53:13;5.60;99.90
41427;DHT22;27171;51.812;19.514;2022-12-29T06:56:14;5.50;99.90
41427;DHT22;27171;51.812;19.514;2022-12-29T06:59:15;5.50;99.90
41427;DHT22;27171;51.812;19.514;2022-12-29T07:02:16;5.40;99.90
41427;DHT22;27171;51.812;19.514;2022-12-29T07:05:17;5.40;99.90
41427;DHT22;27171;51.812;19.514;2022-12-29T07:08:18;5.40;99.90
41427;DHT22;27171;51.812;19.514;2022-12-29T07:11:19;5.40;99.90
41427;DHT22;27171;51.812;19.514;2022-12-29T07:14:20;5.40;99.90
41427;DHT22;27171;51.812;19.514;2022-12-29T07:17:21;5.50;99.90
41427;DHT22;27171;51.812;19.514;2022-12-29T07:20:22;5.50;99.90
41427;DHT22;27171;51.812;19.514;2022-12-29T07:23:23;5.50;99.90
41427;DHT22;27171;51.812;19.514;2022-12-29T07:26:24;5.50;99.90
41427;DHT22;27171;51.812;19.514;2022-12-29T07:29:25;5.50;99.90
41427;DHT22;27171;51.812;19.514;2022-12-29T07:32:27;5.60;99.90
41427;DHT22;27171;51.812;19.514;2022-12-29T07:35:27;5.60;99.90
41427;DHT22;27171;51.812;19.514;2022-12-29T07:38:29;5.60;99.90
41427;DHT22;27171;51.812;19.514;2022-12-29T07:41:30;5.60;99.90
41427;DHT22;27171;51.812;19.514;2022-12-29T07:44:32;5.60;99.90
41427;DHT22;27171;51.812;19.514;2022-12-29T07:47:50;5.70;99.90
41427;DHT22;27171;51.812;19.514;2022-12-29T07:50:52;5.70;99.90
41427;DHT22;27171;51.812;19.514;2022-12-29T07:53:53;5.80;99.90
41427;DHT22;27171;51.812;19.514;2022-12-29T07:56:54;5.80;99.90
41427;DHT22;27171;51.812;19.514;2022-12-29T07:59:55;5.80;99.90
41427;DHT22;27171;51.812;19.514;2022-12-29T08:02:56;5.90;99.90
41427;DHT22;27171;51.812;19.514;2022-12-29T08:05:57;5.90;99.90
41427;DHT22;27171;51.812;19.514;2022-12-29T08:08:58;5.90;99.90
41427;DHT22;27171;51.812;19.514;2022-12-29T08:11:59;6.00;99.90
41427;DHT22;27171;51.812;19.514;2022-12-29T08:15:00;6.00;99.90
41427;DHT22;27171;51.812;19.514;2022-12-29T08:18:02;6.00;99.90
41427;DHT22;27171;51.812;19.514;2022-12-29T08:21:04;6.00;99.90
41427;DHT22;27171;51.812;19.514;2022-12-29T08:24:06;6.00;99.90
41427;DHT22;27171;51.812;19.514;2022-12-29T08:27:09;6.00;99.90
41427;DHT22;27171;51.812;19.514;2022-12-29T08:30:10;6.10;99.90
41427;DHT22;27171;51.812;19.514;2022-12-29T08:33:11;6.10;99.90
41427;DHT22;27171;51.812;19.514;2022-12-29T08:36:12;6.10;99.90
41427;DHT22;27171;51.812;19.514;2022-12-29T08:39:14;6.10;99.90
41427;DHT22;27171;51.812;19.514;2022-12-29T08:42:15;6.20;99.90
41427;DHT22;27171;51.812;19.514;2022-12-29T08:45:16;6.20;99.90
41427;DHT22;27171;51.812;19.514;2022-12-29T08:48:17;6.20;99.90
41427;DHT22;27171;51.812;19.514;2022-12-29T08:51:18;6.30;99.90
41427;DHT22;27171;51.812;19.514;2022-12-29T08:54:19;6.30;99.90
41427;DHT22;27171;51.812;19.514;2022-12-29T08:57:21;6.40;99.90
41427;DHT22;27171;51.812;19.514;2022-12-29T09:00:39;6.40;99.90
41427;DHT22;27171;51.812;19.514;2022-12-29T09:03:40;6.40;99.90
41427;DHT22;27171;51.812;19.514;2022-12-29T09:06:41;6.50;99.90
41427;DHT22;27171;51.812;19.514;2022-12-29T09:09:42;6.50;99.90
41427;DHT22;27171;51.812;19.514;2022-12-29T09:12:43;6.50;99.90
41427;DHT22;27171;51.812;19.514;2022-12-29T09:15:45;6.50;99.90
41427;DHT22;27171;51.812;19.514;2022-12-29T09:18:46;6.60;99.90
41427;DHT22;27171;51.812;19.514;2022-12-29T09:21:47;6.70;99.90
41427;DHT22;27171;51.812;19.514;2022-12-29T09:24:48;6.70;99.90
41427;DHT22;27171;51.812;19.514;2022-12-29T09:27:50;6.70;99.90
41427;DHT22;27171;51.812;19.514;2022-12-29T09:30:51;6.80;99.90
41427;DHT22;27171;51.812;19.514;2022-12-29T09:33:52;6.90;99.90
41427;DHT22;27171;51.812;19.514;2022-12-29T09:36:53;6.90;99.90
41427;DHT22;27171;51.812;19.514;2022-12-29T09:39:55;7.00;99.90
41427;DHT22;27171;51.812;19.514;2022-12-29T09:43:13;7.00;99.90
41427;DHT22;27171;51.812;19.514;2022-12-29T09:46:28;7.00;99.90
41427;DHT22;27171;51.812;19.514;2022-12-29T09:52:52;7.10;99.90
41427;DHT22;27171;51.812;19.514;2022-12-29T09:55:58;7.10;99.90
41427;DHT22;27171;51.812;19.514;2022-12-29T09:59:08;7.20;99.90
41427;DHT22;27171;51.812;19.514;2022-12-29T10:18:48;7.40;99.90
41427;DHT22;27171;51.812;19.514;2022-12-29T10:25:16;7.50;99.90
41427;DHT22;27171;51.812;19.514;2022-12-29T10:28:21;7.50;99.90
41427;DHT22;27171;51.812;19.514;2022-12-29T10:31:25;7.50;99.90
41427;DHT22;27171;51.812;19.514;2022-12-29T10:34:37;7.60;99.90
41427;DHT22;27171;51.812;19.514;2022-12-29T10:41:13;7.70;99.90
41427;DHT22;27171;51.812;19.514;2022-12-29T10:44:17;7.70;99.90
41427;DHT22;27171;51.812;19.514;2022-12-29T10:50:38;7.80;99.90
41427;DHT22;27171;51.812;19.514;2022-12-29T10:53:41;7.80;99.90
41427;DHT22;27171;51.812;19.514;2022-12-29T11:00:20;7.80;99.90
41427;DHT22;27171;51.812;19.514;2022-12-29T11:06:40;7.80;99.90
41427;DHT22;27171;51.812;19.514;2022-12-29T11:09:45;7.80;99.90
41427;DHT22;27171;51.812;19.514;2022-12-29T11:12:56;7.80;99.90
41427;DHT22;27171;51.812;19.514;2022-12-29T11:15:57;7.80;99.90
41427;DHT22;27171;51.812;19.514;2022-12-29T11:18:59;7.90;99.90
41427;DHT22;27171;51.812;19.514;2022-12-29T11:22:20;7.90;99.90
41427;DHT22;27171;51.812;19.514;2022-12-29T11:25:22;7.90;99.90
41427;DHT22;27171;51.812;19.514;2022-12-29T11:28:23;8.00;99.90
41427;DHT22;27171;51.812;19.514;2022-12-29T11:31:24;8.00;99.90
41427;DHT22;27171;51.812;19.514;2022-12-29T11:34:34;8.00;99.90
41427;DHT22;27171;51.812;19.514;2022-12-29T11:37:39;8.10;99.90
41427;DHT22;27171;51.812;19.514;2022-12-29T11:40:40;8.10;99.90
41427;DHT22;27171;51.812;19.514;2022-12-29T11:43:43;8.20;99.90
41427;DHT22;27171;51.812;19.514;2022-12-29T11:46:48;8.20;99.90
41427;DHT22;27171;51.812;19.514;2022-12-29T11:49:53;8.20;99.90
41427;DHT22;27171;51.812;19.514;2022-12-29T11:53:15;8.30;99.90
41427;DHT22;27171;51.812;19.514;2022-12-29T11:56:32;8.30;99.90
41427;DHT22;27171;51.812;19.514;2022-12-29T12:03:19;8.40;99.90
41427;DHT22;27171;51.812;19.514;2022-12-29T12:06:22;8.40;99.90
41427;DHT22;27171;51.812;19.514;2022-12-29T12:09:34;8.40;99.90
41427;DHT22;27171;51.812;19.514;2022-12-29T12:16:04;8.50;99.90
41427;DHT22;27171;51.812;19.514;2022-12-29T12:22:41;8.50;99.90
41427;DHT22;27171;51.812;19.514;2022-12-29T12:26:20;8.50;99.90
41427;DHT22;27171;51.812;19.514;2022-12-29T12:29:18;8.50;99.90
41427;DHT22;27171;51.812;19.514;2022-12-29T12:32:43;8.50;99.90
41427;DHT22;27171;51.812;19.514;2022-12-29T12:36:04;8.50;99.90
41427;DHT22;27171;51.812;19.514;2022-12-29T12:39:25;8.50;99.90
41427;DHT22;27171;51.812;19.514;2022-12-29T12:46:12;8.50;99.90
41427;DHT22;27171;51.812;19.514;2022-12-29T13:02:20;8.60;99.90
41427;DHT22;27171;51.812;19.514;2022-12-29T13:09:08;8.60;99.90
41427;DHT22;27171;51.812;19.514;2022-12-29T13:19:16;8.70;99.90
41427;DHT22;27171;51.812;19.514;2022-12-29T13:32:09;8.70;99.90
41427;DHT22;27171;51.812;19.514;2022-12-29T13:38:46;8.80;99.90
41427;DHT22;27171;51.812;19.514;2022-12-29T13:41:52;8.80;99.90
41427;DHT22;27171;51.812;19.514;2022-12-29T13:45:06;8.80;99.90
41427;DHT22;27171;51.812;19.514;2022-12-29T13:48:15;8.80;99.90
41427;DHT22;27171;51.812;19.514;2022-12-29T13:51:18;8.80;99.90
41427;DHT22;27171;51.812;19.514;2022-12-29T14:04:00;8.80;99.90
41427;DHT22;27171;51.812;19.514;2022-12-29T14:07:05;8.80;99.90
41427;DHT22;27171;51.812;19.514;2022-12-29T14:13:29;8.80;99.90
41427;DHT22;27171;51.812;19.514;2022-12-29T14:16:34;8.80;99.90
41427;DHT22;27171;51.812;19.514;2022-12-29T14:19:41;8.80;99.90
41427;DHT22;27171;51.812;19.514;2022-12-29T14:23:00;8.80;99.90
41427;DHT22;27171;51.812;19.514;2022-12-29T14:35:39;8.80;99.90
41427;DHT22;27171;51.812;19.514;2022-12-29T14:38:45;8.70;99.90
41427;DHT22;27171;51.812;19.514;2022-12-29T14:41:46;8.70;99.90
41427;DHT22;27171;51.812;19.514;2022-12-29T14:45:00;8.70;99.90
41427;DHT22;27171;51.812;19.514;2022-12-29T14:51:31;8.60;99.90
41427;DHT22;27171;51.812;19.514;2022-12-29T14:54:41;8.60;99.90
41427;DHT22;27171;51.812;19.514;2022-12-29T14:57:44;8.60;99.90
41427;DHT22;27171;51.812;19.514;2022-12-29T15:00:48;8.50;99.90
41427;DHT22;27171;51.812;19.514;2022-12-29T15:03:51;8.50;99.90
41427;DHT22;27171;51.812;19.514;2022-12-29T15:06:54;8.50;99.90
41427;DHT22;27171;51.812;19.514;2022-12-29T15:10:00;8.50;99.90
41427;DHT22;27171;51.812;19.514;2022-12-29T15:13:09;8.50;99.90
41427;DHT22;27171;51.812;19.514;2022-12-29T15:16:32;8.50;99.90
41427;DHT22;27171;51.812;19.514;2022-12-29T15:19:33;8.50;99.90
41427;DHT22;27171;51.812;19.514;2022-12-29T15:22:34;8.50;99.90
41427;DHT22;27171;51.812;19.514;2022-12-29T15:25:36;8.60;99.90
41427;DHT22;27171;51.812;19.514;2022-12-29T15:28:43;8.50;99.90
41427;DHT22;27171;51.812;19.514;2022-12-29T15:31:47;8.50;99.90
41427;DHT22;27171;51.812;19.514;2022-12-29T15:34:54;8.50;99.90
41427;DHT22;27171;51.812;19.514;2022-12-29T15:37:56;8.50;99.90
41427;DHT22;27171;51.812;19.514;2022-12-29T15:47:29;8.50;99.90
41427;DHT22;27171;51.812;19.514;2022-12-29T15:50:33;8.50;99.90
41427;DHT22;27171;51.812;19.514;2022-12-29T15:53:35;8.50;99.90
41427;DHT22;27171;51.812;19.514;2022-12-29T15:56:36;8.50;99.90
41427;DHT22;27171;51.812;19.514;2022-12-29T15:59:45;8.50;99.90
41427;DHT22;27171;51.812;19.514;2022-12-29T16:02:47;8.50;99.90
41427;DHT22;27171;51.812;19.514;2022-12-29T16:05:57;8.50;99.90
41427;DHT22;27171;51.812;19.514;2022-12-29T16:09:18;8.50;99.90
41427;DHT22;27171;51.812;19.514;2022-12-29T16:12:22;8.50;99.90
41427;DHT22;27171;51.812;19.514;2022-12-29T16:15:24;8.50;99.90
41427;DHT22;27171;51.812;19.514;2022-12-29T16:18:32;8.50;99.90
41427;DHT22;27171;51.812;19.514;2022-12-29T16:21:35;8.50;99.90
41427;DHT22;27171;51.812;19.514;2022-12-29T16:24:38;8.40;99.90
41427;DHT22;27171;51.812;19.514;2022-12-29T16:27:42;8.50;99.90
41427;DHT22;27171;51.812;19.514;2022-12-29T16:30:43;8.50;99.90
41427;DHT22;27171;51.812;19.514;2022-12-29T16:33:51;8.40;99.90
41427;DHT22;27171;51.812;19.514;2022-12-29T16:36:58;8.40;99.90
41427;DHT22;27171;51.812;19.514;2022-12-29T16:43:41;8.40;99.90
41427;DHT22;27171;51.812;19.514;2022-12-29T16:46:58;8.40;99.90
41427;DHT22;27171;51.812;19.514;2022-12-29T16:50:20;8.30;99.90
41427;DHT22;27171;51.812;19.514;2022-12-29T16:53:26;8.40;99.90
41427;DHT22;27171;51.812;19.514;2022-12-29T16:56:34;8.30;99.90
41427;DHT22;27171;51.812;19.514;2022-12-29T16:59:39;8.30;99.90
41427;DHT22;27171;51.812;19.514;2022-12-29T17:02:41;8.30;99.90
41427;DHT22;27171;51.812;19.514;2022-12-29T17:05:43;8.30;99.90
41427;DHT22;27171;51.812;19.514;2022-12-29T17:08:44;8.30;99.90
41427;DHT22;27171;51.812;19.514;2022-12-29T17:12:04;8.20;99.90
41427;DHT22;27171;51.812;19.514;2022-12-29T17:18:16;8.20;99.90
41427;DHT22;27171;51.812;19.514;2022-12-29T17:21:17;8.20;99.90
41427;DHT22;27171;51.812;19.514;2022-12-29T17:24:19;8.20;99.90
41427;DHT22;27171;51.812;19.514;2022-12-29T17:27:27;8.20;99.90
41427;DHT22;27171;51.812;19.514;2022-12-29T17:30:32;8.20;99.90
41427;DHT22;27171;51.812;19.514;2022-12-29T17:33:36;8.10;99.90
41427;DHT22;27171;51.812;19.514;2022-12-29T17:36:38;8.10;99.90
41427;DHT22;27171;51.812;19.514;2022-12-29T17:39:39;8.10;99.90
41427;DHT22;27171;51.812;19.514;2022-12-29T17:42:45;8.10;99.90
41427;DHT22;27171;51.812;19.514;2022-12-29T17:45:54;8.10;99.90
41427;DHT22;27171;51.812;19.514;2022-12-29T17:48:56;8.10;99.90
41427;DHT22;27171;51.812;19.514;2022-12-29T17:51:57;8.10;99.90
41427;DHT22;27171;51.812;19.514;2022-12-29T17:54:58;8.10;99.90
41427;DHT22;27171;51.812;19.514;2022-12-29T17:58:00;8.10;99.90
41427;DHT22;27171;51.812;19.514;2022-12-29T18:01:02;8.10;99.90
41427;DHT22;27171;51.812;19.514;2022-12-29T18:04:04;8.20;99.90
41427;DHT22;27171;51.812;19.514;2022-12-29T18:07:09;8.20;99.90
41427;DHT22;27171;51.812;19.514;2022-12-29T18:10:11;8.20;99.90
41427;DHT22;27171;51.812;19.514;2022-12-29T18:13:27;8.20;99.90
41427;DHT22;27171;51.812;19.514;2022-12-29T18:16:29;8.20;99.90
41427;DHT22;27171;51.812;19.514;2022-12-29T18:19:30;8.20;99.90
41427;DHT22;27171;51.812;19.514;2022-12-29T18:22:31;8.20;99.90
41427;DHT22;27171;51.812;19.514;2022-12-29T18:26:03;8.20;99.90
41427;DHT22;27171;51.812;19.514;2022-12-29T18:29:04;8.20;99.90
41427;DHT22;27171;51.812;19.514;2022-12-29T18:32:12;8.20;99.90
41427;DHT22;27171;51.812;19.514;2022-12-29T18:35:22;8.20;99.90
41427;DHT22;27171;51.812;19.514;2022-12-29T18:38:26;8.20;99.90
41427;DHT22;27171;51.812;19.514;2022-12-29T18:41:28;8.20;99.90
41427;DHT22;27171;51.812;19.514;2022-12-29T18:44:29;8.20;99.90
41427;DHT22;27171;51.812;19.514;2022-12-29T18:47:30;8.20;99.90
41427;DHT22;27171;51.812;19.514;2022-12-29T18:50:32;8.20;99.90
41427;DHT22;27171;51.812;19.514;2022-12-29T18:53:33;8.20;99.90
41427;DHT22;27171;51.812;19.514;2022-12-29T18:56:34;8.10;99.90
41427;DHT22;27171;51.812;19.514;2022-12-29T18:59:35;8.10;99.90
41427;DHT22;27171;51.812;19.514;2022-12-29T19:02:37;8.10;99.90
41427;DHT22;27171;51.812;19.514;2022-12-29T19:05:39;8.10;99.90
41427;DHT22;27171;51.812;19.514;2022-12-29T19:08:41;8.10;99.90
41427;DHT22;27171;51.812;19.514;2022-12-29T19:11:42;8.10;99.90
41427;DHT22;27171;51.812;19.514;2022-12-29T19:14:44;8.10;99.90
41427;DHT22;27171;51.812;19.514;2022-12-29T19:17:45;8.10;99.90
41427;DHT22;27171;51.812;19.514;2022-12-29T19:20:48;8.10;99.90
41427;DHT22;27171;51.812;19.514;2022-12-29T19:23:50;8.10;99.90
41427;DHT22;27171;51.812;19.514;2022-12-29T19:26:51;8.00;99.90
41427;DHT22;27171;51.812;19.514;2022-12-29T19:29:52;8.10;99.90
41427;DHT22;27171;51.812;19.514;2022-12-29T19:32:53;8.10;99.90
41427;DHT22;27171;51.812;19.514;2022-12-29T19:35:59;8.10;99.90
41427;DHT22;27171;51.812;19.514;2022-12-29T19:39:01;8.10;99.90
41427;DHT22;27171;51.812;19.514;2022-12-29T19:42:02;8.10;99.90
41427;DHT22;27171;51.812;19.514;2022-12-29T19:45:04;8.10;99.90
41427;DHT22;27171;51.812;19.514;2022-12-29T19:48:07;8.20;99.90
41427;DHT22;27171;51.812;19.514;2022-12-29T19:51:11;8.20;99.90
41427;DHT22;27171;51.812;19.514;2022-12-29T19:54:13;8.20;99.90
41427;DHT22;27171;51.812;19.514;2022-12-29T19:57:14;8.20;99.90
41427;DHT22;27171;51.812;19.514;2022-12-29T20:00:16;8.20;99.90
41427;DHT22;27171;51.812;19.514;2022-12-29T20:03:17;8.20;99.90
41427;DHT22;27171;51.812;19.514;2022-12-29T20:06:19;8.20;99.90
41427;DHT22;27171;51.812;19.514;2022-12-29T20:09:21;8.20;99.90
41427;DHT22;27171;51.812;19.514;2022-12-29T20:12:23;8.30;99.90
41427;DHT22;27171;51.812;19.514;2022-12-29T20:15:24;8.30;99.90
41427;DHT22;27171;51.812;19.514;2022-12-29T20:18:25;8.20;99.90
41427;DHT22;27171;51.812;19.514;2022-12-29T20:21:26;8.20;99.90
41427;DHT22;27171;51.812;19.514;2022-12-29T20:24:28;8.20;99.90
41427;DHT22;27171;51.812;19.514;2022-12-29T20:27:29;8.10;99.90
41427;DHT22;27171;51.812;19.514;2022-12-29T20:30:30;8.10;99.90
41427;DHT22;27171;51.812;19.514;2022-12-29T20:33:32;8.10;99.90
41427;DHT22;27171;51.812;19.514;2022-12-29T20:36:36;8.00;99.90
41427;DHT22;27171;51.812;19.514;2022-12-29T20:39:40;8.00;99.90
41427;DHT22;27171;51.812;19.514;2022-12-29T20:42:43;8.00;99.90
41427;DHT22;27171;51.812;19.514;2022-12-29T20:45:44;8.00;99.90
41427;DHT22;27171;51.812;19.514;2022-12-29T20:48:47;8.00;99.90
41427;DHT22;27171;51.812;19.514;2022-12-29T20:51:48;8.00;99.90
41427;DHT22;27171;51.812;19.514;2022-12-29T20:54:49;8.00;99.90
41427;DHT22;27171;51.812;19.514;2022-12-29T20:57:51;7.90;99.90
41427;DHT22;27171;51.812;19.514;2022-12-29T21:00:53;7.80;99.90
41427;DHT22;27171;51.812;19.514;2022-12-29T21:03:54;7.80;99.90
41427;DHT22;27171;51.812;19.514;2022-12-29T21:06:56;7.80;99.90
41427;DHT22;27171;51.812;19.514;2022-12-29T21:09:56;7.80;99.90
41427;DHT22;27171;51.812;19.514;2022-12-29T21:12:58;7.70;99.90
41427;DHT22;27171;51.812;19.514;2022-12-29T21:16:02;7.70;99.90
41427;DHT22;27171;51.812;19.514;2022-12-29T21:19:04;7.60;99.90
41427;DHT22;27171;51.812;19.514;2022-12-29T21:22:05;7.60;99.90
41427;DHT22;27171;51.812;19.514;2022-12-29T21:25:06;7.60;99.90
41427;DHT22;27171;51.812;19.514;2022-12-29T21:28:08;7.60;99.90
41427;DHT22;27171;51.812;19.514;2022-12-29T21:31:28;7.60;99.90
41427;DHT22;27171;51.812;19.514;2022-12-29T21:34:29;7.60;99.90
41427;DHT22;27171;51.812;19.514;2022-12-29T21:37:30;7.50;99.90
41427;DHT22;27171;51.812;19.514;2022-12-29T21:40:33;7.50;99.90
41427;DHT22;27171;51.812;19.514;2022-12-29T21:43:35;7.50;99.90
41427;DHT22;27171;51.812;19.514;2022-12-29T21:46:38;7.40;99.90
41427;DHT22;27171;51.812;19.514;2022-12-29T21:49:40;7.40;99.90
41427;DHT22;27171;51.812;19.514;2022-12-29T21:52:40;7.30;99.90
41427;DHT22;27171;51.812;19.514;2022-12-29T21:55:42;7.30;99.90
41427;DHT22;27171;51.812;19.514;2022-12-29T21:58:45;7.30;99.90
41427;DHT22;27171;51.812;19.514;2022-12-29T22:01:47;7.20;99.90
41427;DHT22;27171;51.812;19.514;2022-12-29T22:04:48;7.20;99.90